sensor_id;sensor_type;location;lat;lon;timestamp;temperature;humidity
69932;DHT22;57243;52.064;5.116;2023-05-16T00:01:16;18.00;57.40
69932;DHT22;57243;52.064;5.116;2023-05-16T00:03:42;18.00;57.30
69932;DHT22;57243;52.064;5.116;2023-05-16T00:06:08;17.90;57.40
69932;DHT22;57243;52.064;5.116;2023-05-16T00:08:34;17.90;57.10
69932;DHT22;57243;52.064;5.116;2023-05-16T00:10:59;17.90;57.70
69932;DHT22;57243;52.064;5.116;2023-05-16T00:13:25;17.90;57.60
69932;DHT22;57243;52.064;5.116;2023-05-16T00:15:51;18.00;57.60
69932;DHT22;57243;52.064;5.116;2023-05-16T00:18:18;18.00;57.80
69932;DHT22;57243;52.064;5.116;2023-05-16T00:20:44;18.00;57.30
69932;DHT22;57243;52.064;5.116;2023-05-16T00:23:09;17.90;56.60
69932;DHT22;57243;52.064;5.116;2023-05-16T00:25:35;17.90;57.20
69932;DHT22;57243;52.064;5.116;2023-05-16T00:28:01;17.90;57.80
69932;DHT22;57243;52.064;5.116;2023-05-16T00:30:26;17.90;57.90
69932;DHT22;57243;52.064;5.116;2023-05-16T00:32:53;18.00;58.00
69932;DHT22;57243;52.064;5.116;2023-05-16T00:35:18;18.00;57.70
69932;DHT22;57243;52.064;5.116;2023-05-16T00:37:44;18.00;57.30
69932;DHT22;57243;52.064;5.116;2023-05-16T00:40:10;18.00;57.40
69932;DHT22;57243;52.064;5.116;2023-05-16T00:42:35;18.00;57.80
69932;DHT22;57243;52.064;5.116;2023-05-16T00:45:01;18.00;57.40
69932;DHT22;57243;52.064;5.116;2023-05-16T00:47:26;18.00;57.30
69932;DHT22;57243;52.064;5.116;2023-05-16T00:49:52;18.00;57.90
69932;DHT22;57243;52.064;5.116;2023-05-16T00:52:18;18.00;57.80
69932;DHT22;57243;52.064;5.116;2023-05-16T00:54:43;18.00;57.50
69932;DHT22;57243;52.064;5.116;2023-05-16T00:57:09;18.00;57.40
69932;DHT22;57243;52.064;5.116;2023-05-16T00:59:34;18.00;57.50
69932;DHT22;57243;52.064;5.116;2023-05-16T01:02:00;18.00;57.20
69932;DHT22;57243;52.064;5.116;2023-05-16T01:04:26;18.00;57.70
69932;DHT22;57243;52.064;5.116;2023-05-16T01:06:52;18.00;57.80
69932;DHT22;57243;52.064;5.116;2023-05-16T01:09:17;18.00;57.80
69932;DHT22;57243;52.064;5.116;2023-05-16T01:14:37;18.00;58.00
69932;DHT22;57243;52.064;5.116;2023-05-16T01:17:10;18.00;57.90
69932;DHT22;57243;52.064;5.116;2023-05-16T01:27:28;18.00;57.40
69932;DHT22;57243;52.064;5.116;2023-05-16T01:29:54;18.00;57.70
69932;DHT22;57243;52.064;5.116;2023-05-16T01:32:20;18.00;57.50
69932;DHT22;57243;52.064;5.116;2023-05-16T01:34:47;18.00;57.40
69932;DHT22;57243;52.064;5.116;2023-05-16T01:37:17;18.00;57.20
69932;DHT22;57243;52.064;5.116;2023-05-16T01:39:49;18.00;57.70
69932;DHT22;57243;52.064;5.116;2023-05-16T01:42:17;18.00;57.90
69932;DHT22;57243;52.064;5.116;2023-05-16T01:44:44;18.00;57.30
69932;DHT22;57243;52.064;5.116;2023-05-16T01:47:13;18.00;57.30
69932;DHT22;57243;52.064;5.116;2023-05-16T01:49:45;18.00;57.50
69932;DHT22;57243;52.064;5.116;2023-05-16T01:52:15;18.00;57.60
69932;DHT22;57243;52.064;5.116;2023-05-16T01:54:43;18.00;57.80
69932;DHT22;57243;52.064;5.116;2023-05-16T01:57:09;18.00;57.40
69932;DHT22;57243;52.064;5.116;2023-05-16T01:59:37;18.00;57.50
69932;DHT22;57243;52.064;5.116;2023-05-16T02:02:03;18.00;57.50
69932;DHT22;57243;52.064;5.116;2023-05-16T02:04:29;18.00;57.10
69932;DHT22;57243;52.064;5.116;2023-05-16T02:06:54;18.00;57.30
69932;DHT22;57243;52.064;5.116;2023-05-16T02:09:20;18.00;57.60
69932;DHT22;57243;52.064;5.116;2023-05-16T02:11:46;18.00;57.40
69932;DHT22;57243;52.064;5.116;2023-05-16T02:14:11;18.00;57.30
69932;DHT22;57243;52.064;5.116;2023-05-16T02:16:37;18.00;57.50
69932;DHT22;57243;52.064;5.116;2023-05-16T02:19:02;18.00;57.10
69932;DHT22;57243;52.064;5.116;2023-05-16T02:21:28;18.00;57.60
69932;DHT22;57243;52.064;5.116;2023-05-16T02:23:53;18.00;57.90
69932;DHT22;57243;52.064;5.116;2023-05-16T02:26:19;18.00;57.70
69932;DHT22;57243;52.064;5.116;2023-05-16T02:28:45;18.00;57.90
69932;DHT22;57243;52.064;5.116;2023-05-16T02:31:10;18.00;58.00
69932;DHT22;57243;52.064;5.116;2023-05-16T02:33:36;18.00;58.00
69932;DHT22;57243;52.064;5.116;2023-05-16T02:36:01;18.10;57.80
69932;DHT22;57243;52.064;5.116;2023-05-16T02:38:27;18.10;57.80
69932;DHT22;57243;52.064;5.116;2023-05-16T02:40:53;18.00;57.80
69932;DHT22;57243;52.064;5.116;2023-05-16T02:43:18;18.00;57.60
69932;DHT22;57243;52.064;5.116;2023-05-16T02:45:44;18.00;57.60
69932;DHT22;57243;52.064;5.116;2023-05-16T02:48:09;18.00;57.80
69932;DHT22;57243;52.064;5.116;2023-05-16T02:50:36;18.00;57.70
69932;DHT22;57243;52.064;5.116;2023-05-16T02:53:01;18.00;57.80
69932;DHT22;57243;52.064;5.116;2023-05-16T02:55:27;18.10;57.90
69932;DHT22;57243;52.064;5.116;2023-05-16T02:57:53;18.00;57.80
69932;DHT22;57243;52.064;5.116;2023-05-16T03:00:18;18.00;57.70
69932;DHT22;57243;52.064;5.116;2023-05-16T03:02:44;18.00;57.80
69932;DHT22;57243;52.064;5.116;2023-05-16T03:05:10;18.10;57.80
69932;DHT22;57243;52.064;5.116;2023-05-16T03:07:36;18.00;57.60
69932;DHT22;57243;52.064;5.116;2023-05-16T03:10:01;18.00;57.70
69932;DHT22;57243;52.064;5.116;2023-05-16T03:12:27;18.00;57.70
69932;DHT22;57243;52.064;5.116;2023-05-16T03:14:52;18.00;57.50
69932;DHT22;57243;52.064;5.116;2023-05-16T03:17:18;18.00;57.40
69932;DHT22;57243;52.064;5.116;2023-05-16T03:19:44;18.00;57.80
69932;DHT22;57243;52.064;5.116;2023-05-16T03:22:10;18.00;57.80
69932;DHT22;57243;52.064;5.116;2023-05-16T03:24:35;18.00;57.90
69932;DHT22;57243;52.064;5.116;2023-05-16T03:27:01;18.00;57.70
69932;DHT22;57243;52.064;5.116;2023-05-16T03:29:27;18.00;57.90
69932;DHT22;57243;52.064;5.116;2023-05-16T03:31:53;18.00;57.80
69932;DHT22;57243;52.064;5.116;2023-05-16T03:34:19;18.00;57.80
69932;DHT22;57243;52.064;5.116;2023-05-16T03:36:46;18.00;57.80
69932;DHT22;57243;52.064;5.116;2023-05-16T03:39:12;18.00;57.80
69932;DHT22;57243;52.064;5.116;2023-05-16T03:41:37;18.00;57.80
69932;DHT22;57243;52.064;5.116;2023-05-16T03:44:03;18.00;57.90
69932;DHT22;57243;52.064;5.116;2023-05-16T03:46:28;18.00;57.80
69932;DHT22;57243;52.064;5.116;2023-05-16T03:48:54;18.00;57.80
69932;DHT22;57243;52.064;5.116;2023-05-16T03:51:19;18.00;57.70
69932;DHT22;57243;52.064;5.116;2023-05-16T03:53:45;18.00;57.90
69932;DHT22;57243;52.064;5.116;2023-05-16T03:56:11;18.00;57.80
69932;DHT22;57243;52.064;5.116;2023-05-16T03:58:36;18.00;57.70
69932;DHT22;57243;52.064;5.116;2023-05-16T04:01:02;18.00;57.60
69932;DHT22;57243;52.064;5.116;2023-05-16T04:03:28;18.00;57.70
69932;DHT22;57243;52.064;5.116;2023-05-16T04:05:54;18.00;57.80
69932;DHT22;57243;52.064;5.116;2023-05-16T04:08:20;18.00;57.80
69932;DHT22;57243;52.064;5.116;2023-05-16T04:10:46;18.00;57.70
69932;DHT22;57243;52.064;5.116;2023-05-16T04:13:11;18.00;57.80
69932;DHT22;57243;52.064;5.116;2023-05-16T04:15:37;18.00;57.90
69932;DHT22;57243;52.064;5.116;2023-05-16T04:18:03;18.00;57.80
69932;DHT22;57243;52.064;5.116;2023-05-16T04:20:29;18.00;57.90
69932;DHT22;57243;52.064;5.116;2023-05-16T04:22:55;18.00;57.80
69932;DHT22;57243;52.064;5.116;2023-05-16T04:25:20;18.00;57.80
69932;DHT22;57243;52.064;5.116;2023-05-16T04:27:46;18.00;57.80
69932;DHT22;57243;52.064;5.116;2023-05-16T04:30:11;18.00;57.80
69932;DHT22;57243;52.064;5.116;2023-05-16T04:32:38;18.00;57.90
69932;DHT22;57243;52.064;5.116;2023-05-16T04:35:04;18.00;57.60
69932;DHT22;57243;52.064;5.116;2023-05-16T04:37:31;18.00;57.60
69932;DHT22;57243;52.064;5.116;2023-05-16T04:39:56;18.10;57.60
69932;DHT22;57243;52.064;5.116;2023-05-16T04:42:23;18.10;57.50
69932;DHT22;57243;52.064;5.116;2023-05-16T04:44:48;18.10;57.50
69932;DHT22;57243;52.064;5.116;2023-05-16T04:47:14;18.10;57.50
69932;DHT22;57243;52.064;5.116;2023-05-16T04:49:39;18.10;57.40
69932;DHT22;57243;52.064;5.116;2023-05-16T04:52:05;18.10;57.20
69932;DHT22;57243;52.064;5.116;2023-05-16T04:54:32;18.10;57.30
69932;DHT22;57243;52.064;5.116;2023-05-16T04:56:58;18.10;57.20
69932;DHT22;57243;52.064;5.116;2023-05-16T04:59:23;18.10;57.30
69932;DHT22;57243;52.064;5.116;2023-05-16T05:01:49;18.10;57.20
69932;DHT22;57243;52.064;5.116;2023-05-16T05:04:14;18.10;57.00
69932;DHT22;57243;52.064;5.116;2023-05-16T05:06:42;18.20;57.10
69932;DHT22;57243;52.064;5.116;2023-05-16T05:09:08;18.20;57.00
69932;DHT22;57243;52.064;5.116;2023-05-16T05:11:34;18.20;57.00
69932;DHT22;57243;52.064;5.116;2023-05-16T05:13:59;18.20;56.90
69932;DHT22;57243;52.064;5.116;2023-05-16T05:16:25;18.20;56.90
69932;DHT22;57243;52.064;5.116;2023-05-16T05:18:50;18.20;56.80
69932;DHT22;57243;52.064;5.116;2023-05-16T05:21:17;18.20;56.80
69932;DHT22;57243;52.064;5.116;2023-05-16T05:23:44;18.20;56.80
69932;DHT22;57243;52.064;5.116;2023-05-16T05:26:10;18.20;56.50
69932;DHT22;57243;52.064;5.116;2023-05-16T05:28:36;18.20;56.20
69932;DHT22;57243;52.064;5.116;2023-05-16T05:31:02;18.20;56.10
69932;DHT22;57243;52.064;5.116;2023-05-16T05:33:29;18.20;56.00
69932;DHT22;57243;52.064;5.116;2023-05-16T05:35:55;18.20;55.80
69932;DHT22;57243;52.064;5.116;2023-05-16T05:38:20;18.20;55.80
69932;DHT22;57243;52.064;5.116;2023-05-16T05:40:46;18.30;55.70
69932;DHT22;57243;52.064;5.116;2023-05-16T05:43:13;18.30;55.60
69932;DHT22;57243;52.064;5.116;2023-05-16T05:45:42;18.30;55.30
69932;DHT22;57243;52.064;5.116;2023-05-16T05:48:08;18.30;55.10
69932;DHT22;57243;52.064;5.116;2023-05-16T05:50:35;18.20;55.10
69932;DHT22;57243;52.064;5.116;2023-05-16T05:53:00;18.30;55.60
69932;DHT22;57243;52.064;5.116;2023-05-16T05:55:26;18.30;54.90
69932;DHT22;57243;52.064;5.116;2023-05-16T05:57:51;18.30;54.90
69932;DHT22;57243;52.064;5.116;2023-05-16T06:00:17;18.30;54.30
69932;DHT22;57243;52.064;5.116;2023-05-16T06:02:42;18.20;54.60
69932;DHT22;57243;52.064;5.116;2023-05-16T06:05:08;18.20;54.40
69932;DHT22;57243;52.064;5.116;2023-05-16T06:07:33;18.20;54.30
69932;DHT22;57243;52.064;5.116;2023-05-16T06:09:59;18.20;54.70
69932;DHT22;57243;52.064;5.116;2023-05-16T06:12:28;18.30;54.70
69932;DHT22;57243;52.064;5.116;2023-05-16T06:14:54;18.30;54.30
69932;DHT22;57243;52.064;5.116;2023-05-16T06:17:19;18.30;53.70
69932;DHT22;57243;52.064;5.116;2023-05-16T06:19:45;18.20;54.00
69932;DHT22;57243;52.064;5.116;2023-05-16T06:22:11;18.20;54.20
69932;DHT22;57243;52.064;5.116;2023-05-16T06:24:36;18.20;54.30
69932;DHT22;57243;52.064;5.116;2023-05-16T06:27:02;18.30;54.50
69932;DHT22;57243;52.064;5.116;2023-05-16T06:29:27;18.30;54.40
69932;DHT22;57243;52.064;5.116;2023-05-16T06:31:53;18.30;54.30
69932;DHT22;57243;52.064;5.116;2023-05-16T06:34:18;18.30;54.20
69932;DHT22;57243;52.064;5.116;2023-05-16T06:36:48;18.40;54.20
69932;DHT22;57243;52.064;5.116;2023-05-16T06:39:13;18.40;54.20
69932;DHT22;57243;52.064;5.116;2023-05-16T06:41:39;18.30;53.90
69932;DHT22;57243;52.064;5.116;2023-05-16T06:44:04;18.30;53.80
69932;DHT22;57243;52.064;5.116;2023-05-16T06:46:30;18.30;53.50
69932;DHT22;57243;52.064;5.116;2023-05-16T06:48:55;18.30;53.80
69932;DHT22;57243;52.064;5.116;2023-05-16T06:51:21;18.20;53.90
69932;DHT22;57243;52.064;5.116;2023-05-16T06:53:46;18.20;54.00
69932;DHT22;57243;52.064;5.116;2023-05-16T06:56:12;18.20;53.80
69932;DHT22;57243;52.064;5.116;2023-05-16T06:58:37;18.20;54.10
69932;DHT22;57243;52.064;5.116;2023-05-16T07:01:03;18.30;54.10
69932;DHT22;57243;52.064;5.116;2023-05-16T07:03:28;18.30;53.50
69932;DHT22;57243;52.064;5.116;2023-05-16T07:05:54;18.20;53.00
69932;DHT22;57243;52.064;5.116;2023-05-16T07:08:19;18.20;53.60
69932;DHT22;57243;52.064;5.116;2023-05-16T07:10:45;18.20;53.60
69932;DHT22;57243;52.064;5.116;2023-05-16T07:13:10;18.20;54.10
69932;DHT22;57243;52.064;5.116;2023-05-16T07:15:36;18.30;53.30
69932;DHT22;57243;52.064;5.116;2023-05-16T07:18:01;18.20;53.50
69932;DHT22;57243;52.064;5.116;2023-05-16T07:20:27;18.20;53.30
69932;DHT22;57243;52.064;5.116;2023-05-16T07:22:53;18.10;53.30
69932;DHT22;57243;52.064;5.116;2023-05-16T07:25:18;18.10;53.70
69932;DHT22;57243;52.064;5.116;2023-05-16T07:27:44;18.10;53.70
69932;DHT22;57243;52.064;5.116;2023-05-16T07:30:10;18.20;53.70
69932;DHT22;57243;52.064;5.116;2023-05-16T07:32:36;18.20;53.60
69932;DHT22;57243;52.064;5.116;2023-05-16T07:35:02;18.20;53.40
69932;DHT22;57243;52.064;5.116;2023-05-16T07:37:28;18.20;53.10
69932;DHT22;57243;52.064;5.116;2023-05-16T07:39:53;18.20;53.40
69932;DHT22;57243;52.064;5.116;2023-05-16T07:42:19;18.20;53.60
69932;DHT22;57243;52.064;5.116;2023-05-16T07:44:44;18.20;52.70
69932;DHT22;57243;52.064;5.116;2023-05-16T07:47:10;18.20;53.60
69932;DHT22;57243;52.064;5.116;2023-05-16T07:49:35;18.20;53.30
69932;DHT22;57243;52.064;5.116;2023-05-16T07:52:01;18.20;53.20
69932;DHT22;57243;52.064;5.116;2023-05-16T07:54:26;18.20;53.20
69932;DHT22;57243;52.064;5.116;2023-05-16T07:56:52;18.20;53.10
69932;DHT22;57243;52.064;5.116;2023-05-16T07:59:17;18.20;52.80
69932;DHT22;57243;52.064;5.116;2023-05-16T08:01:43;18.20;53.20
69932;DHT22;57243;52.064;5.116;2023-05-16T08:04:09;18.20;53.50
69932;DHT22;57243;52.064;5.116;2023-05-16T08:06:34;18.30;54.00
69932;DHT22;57243;52.064;5.116;2023-05-16T08:09:00;18.30;53.40
69932;DHT22;57243;52.064;5.116;2023-05-16T08:11:25;18.30;53.00
69932;DHT22;57243;52.064;5.116;2023-05-16T08:13:51;18.30;53.10
69932;DHT22;57243;52.064;5.116;2023-05-16T08:16:17;18.30;52.20
69932;DHT22;57243;52.064;5.116;2023-05-16T08:18:42;18.20;52.50
69932;DHT22;57243;52.064;5.116;2023-05-16T08:21:08;18.20;52.80
69932;DHT22;57243;52.064;5.116;2023-05-16T08:23:33;18.20;52.90
69932;DHT22;57243;52.064;5.116;2023-05-16T08:25:59;18.20;52.40
69932;DHT22;57243;52.064;5.116;2023-05-16T08:28:25;18.20;53.10
69932;DHT22;57243;52.064;5.116;2023-05-16T08:30:51;18.20;52.40
69932;DHT22;57243;52.064;5.116;2023-05-16T08:33:16;18.20;53.40
69932;DHT22;57243;52.064;5.116;2023-05-16T08:35:42;18.30;53.30
69932;DHT22;57243;52.064;5.116;2023-05-16T08:38:08;18.30;52.80
69932;DHT22;57243;52.064;5.116;2023-05-16T08:40:34;18.30;52.80
69932;DHT22;57243;52.064;5.116;2023-05-16T08:42:59;18.40;52.10
69932;DHT22;57243;52.064;5.116;2023-05-16T08:45:25;18.30;52.00
69932;DHT22;57243;52.064;5.116;2023-05-16T08:47:52;18.30;52.00
69932;DHT22;57243;52.064;5.116;2023-05-16T08:50:19;18.30;52.80
69932;DHT22;57243;52.064;5.116;2023-05-16T08:52:44;18.30;51.90
69932;DHT22;57243;52.064;5.116;2023-05-16T08:55:11;18.30;52.60
69932;DHT22;57243;52.064;5.116;2023-05-16T08:57:37;18.40;52.90
69932;DHT22;57243;52.064;5.116;2023-05-16T09:00:04;18.40;52.80
69932;DHT22;57243;52.064;5.116;2023-05-16T09:02:40;18.40;52.00
69932;DHT22;57243;52.064;5.116;2023-05-16T09:05:10;18.40;52.10
69932;DHT22;57243;52.064;5.116;2023-05-16T09:07:36;18.40;52.50
69932;DHT22;57243;52.064;5.116;2023-05-16T09:10:01;18.40;52.70
69932;DHT22;57243;52.064;5.116;2023-05-16T09:12:27;18.50;52.60
69932;DHT22;57243;52.064;5.116;2023-05-16T09:14:53;18.50;51.80
69932;DHT22;57243;52.064;5.116;2023-05-16T09:17:18;18.50;52.10
69932;DHT22;57243;52.064;5.116;2023-05-16T09:19:45;18.50;52.30
69932;DHT22;57243;52.064;5.116;2023-05-16T09:22:13;18.50;52.70
69932;DHT22;57243;52.064;5.116;2023-05-16T09:24:39;18.50;51.90
69932;DHT22;57243;52.064;5.116;2023-05-16T09:27:12;18.50;51.60
69932;DHT22;57243;52.064;5.116;2023-05-16T09:29:41;18.50;52.60
69932;DHT22;57243;52.064;5.116;2023-05-16T09:32:14;18.40;51.20
69932;DHT22;57243;52.064;5.116;2023-05-16T09:34:43;18.40;51.50
69932;DHT22;57243;52.064;5.116;2023-05-16T09:37:10;18.40;52.20
69932;DHT22;57243;52.064;5.116;2023-05-16T09:39:36;18.40;51.30
69932;DHT22;57243;52.064;5.116;2023-05-16T09:42:01;18.40;52.20
69932;DHT22;57243;52.064;5.116;2023-05-16T09:44:27;18.40;51.50
69932;DHT22;57243;52.064;5.116;2023-05-16T09:46:53;18.40;51.10
69932;DHT22;57243;52.064;5.116;2023-05-16T09:49:19;18.40;51.90
69932;DHT22;57243;52.064;5.116;2023-05-16T09:51:44;18.40;51.70
69932;DHT22;57243;52.064;5.116;2023-05-16T09:54:10;18.40;51.90
69932;DHT22;57243;52.064;5.116;2023-05-16T09:56:48;18.40;51.80
69932;DHT22;57243;52.064;5.116;2023-05-16T09:59:14;18.40;51.40
69932;DHT22;57243;52.064;5.116;2023-05-16T10:01:40;18.40;51.90
69932;DHT22;57243;52.064;5.116;2023-05-16T10:04:06;18.40;52.10
69932;DHT22;57243;52.064;5.116;2023-05-16T10:06:34;18.40;52.30
69932;DHT22;57243;52.064;5.116;2023-05-16T10:09:01;18.40;51.20
69932;DHT22;57243;52.064;5.116;2023-05-16T10:11:27;18.40;51.30
69932;DHT22;57243;52.064;5.116;2023-05-16T10:13:53;18.40;51.30
69932;DHT22;57243;52.064;5.116;2023-05-16T10:16:19;18.40;51.80
69932;DHT22;57243;52.064;5.116;2023-05-16T10:18:46;18.40;51.90
69932;DHT22;57243;52.064;5.116;2023-05-16T10:21:14;18.40;51.30
69932;DHT22;57243;52.064;5.116;2023-05-16T10:23:41;18.40;50.80
69932;DHT22;57243;52.064;5.116;2023-05-16T10:26:07;18.40;51.60
69932;DHT22;57243;52.064;5.116;2023-05-16T10:28:33;18.40;50.70
69932;DHT22;57243;52.064;5.116;2023-05-16T10:31:00;18.40;51.20
69932;DHT22;57243;52.064;5.116;2023-05-16T10:33:27;18.40;50.80
69932;DHT22;57243;52.064;5.116;2023-05-16T10:35:52;18.30;50.30
69932;DHT22;57243;52.064;5.116;2023-05-16T10:38:18;18.30;51.30
69932;DHT22;57243;52.064;5.116;2023-05-16T10:40:45;18.40;51.70
69932;DHT22;57243;52.064;5.116;2023-05-16T10:43:12;18.50;51.80
69932;DHT22;57243;52.064;5.116;2023-05-16T10:45:46;18.50;51.30
69932;DHT22;57243;52.064;5.116;2023-05-16T10:48:17;18.50;50.60
69932;DHT22;57243;52.064;5.116;2023-05-16T10:50:52;18.50;51.00
69932;DHT22;57243;52.064;5.116;2023-05-16T10:53:36;18.50;50.20
69932;DHT22;57243;52.064;5.116;2023-05-16T11:01:18;18.40;51.10
69932;DHT22;57243;52.064;5.116;2023-05-16T11:09:36;18.50;50.50
69932;DHT22;57243;52.064;5.116;2023-05-16T11:14:21;18.50;51.20
69932;DHT22;57243;52.064;5.116;2023-05-16T11:16:48;18.50;51.20
69932;DHT22;57243;52.064;5.116;2023-05-16T11:19:13;18.60;51.40
69932;DHT22;57243;52.064;5.116;2023-05-16T11:22:08;18.60;51.10
69932;DHT22;57243;52.064;5.116;2023-05-16T11:24:34;18.60;51.10
69932;DHT22;57243;52.064;5.116;2023-05-16T11:27:00;18.50;50.50
69932;DHT22;57243;52.064;5.116;2023-05-16T11:29:33;18.50;51.10
69932;DHT22;57243;52.064;5.116;2023-05-16T11:31:59;18.50;50.90
69932;DHT22;57243;52.064;5.116;2023-05-16T11:34:25;18.50;50.70
69932;DHT22;57243;52.064;5.116;2023-05-16T11:36:51;18.50;50.80
69932;DHT22;57243;52.064;5.116;2023-05-16T11:39:16;18.50;50.60
69932;DHT22;57243;52.064;5.116;2023-05-16T11:41:43;18.60;51.10
69932;DHT22;57243;52.064;5.116;2023-05-16T11:44:12;18.60;51.40
69932;DHT22;57243;52.064;5.116;2023-05-16T11:46:38;18.60;51.40
69932;DHT22;57243;52.064;5.116;2023-05-16T11:49:05;18.60;51.60
69932;DHT22;57243;52.064;5.116;2023-05-16T11:51:31;18.60;51.20
69932;DHT22;57243;52.064;5.116;2023-05-16T11:53:59;18.60;51.60
69932;DHT22;57243;52.064;5.116;2023-05-16T11:56:24;18.60;51.00
69932;DHT22;57243;52.064;5.116;2023-05-16T11:58:51;18.60;51.10
69932;DHT22;57243;52.064;5.116;2023-05-16T12:01:17;18.60;51.10
69932;DHT22;57243;52.064;5.116;2023-05-16T12:03:43;18.60;51.50
69932;DHT22;57243;52.064;5.116;2023-05-16T12:06:08;18.60;51.40
69932;DHT22;57243;52.064;5.116;2023-05-16T12:08:34;18.60;51.40
69932;DHT22;57243;52.064;5.116;2023-05-16T12:11:00;18.60;51.10
69932;DHT22;57243;52.064;5.116;2023-05-16T12:13:25;18.60;51.40
69932;DHT22;57243;52.064;5.116;2023-05-16T12:15:51;18.60;50.30
69932;DHT22;57243;52.064;5.116;2023-05-16T12:18:17;18.60;50.90
69932;DHT22;57243;52.064;5.116;2023-05-16T12:20:43;18.60;51.20
69932;DHT22;57243;52.064;5.116;2023-05-16T12:23:09;18.60;51.40
69932;DHT22;57243;52.064;5.116;2023-05-16T12:25:35;18.70;51.30
69932;DHT22;57243;52.064;5.116;2023-05-16T12:28:03;18.60;51.30
69932;DHT22;57243;52.064;5.116;2023-05-16T12:30:29;18.60;50.10
69932;DHT22;57243;52.064;5.116;2023-05-16T12:33:01;18.60;49.20
69932;DHT22;57243;52.064;5.116;2023-05-16T12:35:33;18.50;50.10
69932;DHT22;57243;52.064;5.116;2023-05-16T12:37:59;18.50;50.90
69932;DHT22;57243;52.064;5.116;2023-05-16T12:40:28;18.60;51.30
69932;DHT22;57243;52.064;5.116;2023-05-16T12:42:54;18.60;50.60
69932;DHT22;57243;52.064;5.116;2023-05-16T12:45:20;18.60;50.10
69932;DHT22;57243;52.064;5.116;2023-05-16T12:47:48;18.60;50.90
69932;DHT22;57243;52.064;5.116;2023-05-16T12:50:14;18.60;51.00
69932;DHT22;57243;52.064;5.116;2023-05-16T12:52:47;18.60;50.70
69932;DHT22;57243;52.064;5.116;2023-05-16T12:55:19;18.60;50.00
69932;DHT22;57243;52.064;5.116;2023-05-16T12:57:45;18.60;51.20
69932;DHT22;57243;52.064;5.116;2023-05-16T13:00:14;18.60;50.40
69932;DHT22;57243;52.064;5.116;2023-05-16T13:02:40;18.60;49.90
69932;DHT22;57243;52.064;5.116;2023-05-16T13:05:06;18.60;50.80
69932;DHT22;57243;52.064;5.116;2023-05-16T13:07:32;18.60;50.30
69932;DHT22;57243;52.064;5.116;2023-05-16T13:10:00;18.60;50.70
69932;DHT22;57243;52.064;5.116;2023-05-16T13:12:26;18.60;51.10
69932;DHT22;57243;52.064;5.116;2023-05-16T13:14:52;18.70;51.30
69932;DHT22;57243;52.064;5.116;2023-05-16T13:17:18;18.70;50.70
69932;DHT22;57243;52.064;5.116;2023-05-16T13:19:43;18.70;50.30
69932;DHT22;57243;52.064;5.116;2023-05-16T13:22:09;18.60;50.30
69932;DHT22;57243;52.064;5.116;2023-05-16T13:24:35;18.60;50.40
69932;DHT22;57243;52.064;5.116;2023-05-16T13:27:00;18.60;50.60
69932;DHT22;57243;52.064;5.116;2023-05-16T13:29:26;18.60;50.50
69932;DHT22;57243;52.064;5.116;2023-05-16T13:31:51;18.60;50.60
69932;DHT22;57243;52.064;5.116;2023-05-16T13:34:17;18.70;51.50
69932;DHT22;57243;52.064;5.116;2023-05-16T13:36:42;18.70;51.80
69932;DHT22;57243;52.064;5.116;2023-05-16T13:39:11;18.70;51.50
69932;DHT22;57243;52.064;5.116;2023-05-16T13:41:37;18.70;51.50
69932;DHT22;57243;52.064;5.116;2023-05-16T13:44:04;18.70;50.40
69932;DHT22;57243;52.064;5.116;2023-05-16T13:46:30;18.70;51.30
69932;DHT22;57243;52.064;5.116;2023-05-16T13:48:55;18.70;50.50
69932;DHT22;57243;52.064;5.116;2023-05-16T13:51:21;18.70;50.50
69932;DHT22;57243;52.064;5.116;2023-05-16T13:53:46;18.70;50.30
69932;DHT22;57243;52.064;5.116;2023-05-16T13:56:12;18.70;50.80
69932;DHT22;57243;52.064;5.116;2023-05-16T13:58:37;18.70;51.10
69932;DHT22;57243;52.064;5.116;2023-05-16T14:01:03;18.70;50.90
69932;DHT22;57243;52.064;5.116;2023-05-16T14:03:28;18.70;51.60
69932;DHT22;57243;52.064;5.116;2023-05-16T14:05:54;18.70;50.80
69932;DHT22;57243;52.064;5.116;2023-05-16T14:08:19;18.80;51.10
69932;DHT22;57243;52.064;5.116;2023-05-16T14:10:45;18.80;51.00
69932;DHT22;57243;52.064;5.116;2023-05-16T14:13:10;18.70;51.20
69932;DHT22;57243;52.064;5.116;2023-05-16T14:15:36;18.70;51.30
69932;DHT22;57243;52.064;5.116;2023-05-16T14:18:02;18.80;50.70
69932;DHT22;57243;52.064;5.116;2023-05-16T14:20:28;18.80;50.50
69932;DHT22;57243;52.064;5.116;2023-05-16T14:22:54;18.70;50.60
69932;DHT22;57243;52.064;5.116;2023-05-16T14:25:21;18.80;50.90
69932;DHT22;57243;52.064;5.116;2023-05-16T14:27:46;18.70;50.50
69932;DHT22;57243;52.064;5.116;2023-05-16T14:30:12;18.70;50.00
69932;DHT22;57243;52.064;5.116;2023-05-16T14:32:38;18.70;50.40
69932;DHT22;57243;52.064;5.116;2023-05-16T14:35:04;18.70;51.00
69932;DHT22;57243;52.064;5.116;2023-05-16T14:37:29;18.70;50.70
69932;DHT22;57243;52.064;5.116;2023-05-16T14:39:55;18.70;51.50
69932;DHT22;57243;52.064;5.116;2023-05-16T14:42:21;18.80;51.30
69932;DHT22;57243;52.064;5.116;2023-05-16T14:44:47;18.80;51.60
69932;DHT22;57243;52.064;5.116;2023-05-16T14:47:12;18.80;51.40
69932;DHT22;57243;52.064;5.116;2023-05-16T14:49:38;18.80;51.00
69932;DHT22;57243;52.064;5.116;2023-05-16T14:52:04;18.80;51.30
69932;DHT22;57243;52.064;5.116;2023-05-16T14:54:30;18.80;50.70
69932;DHT22;57243;52.064;5.116;2023-05-16T14:56:56;18.80;50.00
69932;DHT22;57243;52.064;5.116;2023-05-16T14:59:24;18.80;49.60
69932;DHT22;57243;52.064;5.116;2023-05-16T15:01:49;18.70;50.90
69932;DHT22;57243;52.064;5.116;2023-05-16T15:04:15;18.70;50.60
69932;DHT22;57243;52.064;5.116;2023-05-16T15:06:40;18.80;50.90
69932;DHT22;57243;52.064;5.116;2023-05-16T15:09:06;18.80;50.90
69932;DHT22;57243;52.064;5.116;2023-05-16T15:11:31;18.80;50.10
69932;DHT22;57243;52.064;5.116;2023-05-16T15:13:57;18.70;50.50
69932;DHT22;57243;52.064;5.116;2023-05-16T15:16:23;18.80;50.70
69932;DHT22;57243;52.064;5.116;2023-05-16T15:18:48;18.80;50.80
69932;DHT22;57243;52.064;5.116;2023-05-16T15:21:14;18.80;50.90
69932;DHT22;57243;52.064;5.116;2023-05-16T15:23:40;18.80;50.90
69932;DHT22;57243;52.064;5.116;2023-05-16T15:26:06;18.80;51.20
69932;DHT22;57243;52.064;5.116;2023-05-16T15:28:32;18.80;50.40
69932;DHT22;57243;52.064;5.116;2023-05-16T15:30:58;18.80;50.80
69932;DHT22;57243;52.064;5.116;2023-05-16T15:33:23;18.80;51.10
69932;DHT22;57243;52.064;5.116;2023-05-16T15:35:49;18.80;50.70
69932;DHT22;57243;52.064;5.116;2023-05-16T15:38:14;18.80;51.20
69932;DHT22;57243;52.064;5.116;2023-05-16T15:40:40;18.80;51.10
69932;DHT22;57243;52.064;5.116;2023-05-16T15:43:05;18.80;51.40
69932;DHT22;57243;52.064;5.116;2023-05-16T15:45:31;18.80;51.30
69932;DHT22;57243;52.064;5.116;2023-05-16T15:47:57;18.80;51.30